Главная страница
METAR-TAF:

METAR-TAF

Аэропорты :

Гейтерсберг, Мэриленд, США

широта: 39-10-06N, долгота: 077-09-58W, высота над уровнем моря: 164 м

Текущие метеонаблюдения

Эта сводка был подготовлена 55 минут назад, в 20:56 UTC
Штиль
Температура 28°C
Влажность 70%
Давление 1019 hPa
Видимость: 16.1 км
Отдельные облака на высоте 5000 фута
Рассеянная облачность на высоте 6000 фута
Сплошная облачность на высоте 8000 фута

METAR: KGAI 172056Z AUTO 00000KT 10SM SCT050 BKN060 OVC080 28/22 A3008 RMK AO2 SLP205 T02830222 56007

Время: 17:51 (21:51 UTC)


TAF: отсутствует

Метеонаблюдения и прогнозы для более 4000 аэропортов (сводки METAR и TAF).

Имеющиеся станции представлены на карте желтыми и красными точками.

Чтобы увидеть название станции, наведите на нее мышь.

Затем щелкните, чтобы увидеть метеонаблюдения и метеопрогнозы.

Управление картой: чтобы увеличить масштаб, щелкните зеленые кнопки с черным крестиком; чтобы уменьшить масштаб, щелкните зеленую кнопку с тире; для просмотра соседних карт щелкайте зеленые стрелки.


METAR-TAF: